createdAt,value
2023-01-27T00:00:40.110Z,0.90
2023-01-27T00:03:07.120Z,0.80
2023-01-27T00:05:33.783Z,0.80
2023-01-27T00:08:00.382Z,0.90
2023-01-27T00:10:27.293Z,0.90
2023-01-27T00:13:12.385Z,1.00
2023-01-27T00:15:39.543Z,1.00
2023-01-27T00:18:09.094Z,1.00
2023-01-27T00:20:54.373Z,1.00
2023-01-27T00:23:40.557Z,1.10
2023-01-27T00:26:08.794Z,1.10
2023-01-27T00:28:35.851Z,0.90
2023-01-27T00:31:03.127Z,0.80
2023-01-27T00:33:29.774Z,0.80
2023-01-27T00:36:07.015Z,0.90
2023-01-27T00:38:35.047Z,0.90
2023-01-27T00:41:23.092Z,0.90
2023-01-27T00:43:53.353Z,0.90
2023-01-27T00:46:23.277Z,0.90
2023-01-27T00:48:51.811Z,0.80
2023-01-27T00:51:19.122Z,0.80
2023-01-27T00:53:46.025Z,0.90
2023-01-27T00:56:12.904Z,0.90
2023-01-27T00:58:39.560Z,0.90
2023-01-27T01:01:07.300Z,0.90
2023-01-27T01:03:34.728Z,0.90
2023-01-27T01:06:02.791Z,0.80
2023-01-27T01:08:33.611Z,0.80
2023-01-27T01:11:02.892Z,0.90
2023-01-27T01:13:31.990Z,0.90
2023-01-27T01:16:04.391Z,0.80
2023-01-27T01:18:30.989Z,0.70
2023-01-27T01:20:57.649Z,0.60
2023-01-27T01:23:24.256Z,0.70
2023-01-27T01:25:57.272Z,0.70
2023-01-27T01:28:26.262Z,0.80
2023-01-27T01:30:52.991Z,0.80
2023-01-27T01:33:19.650Z,0.80
2023-01-27T01:35:48.775Z,0.80
2023-01-27T01:38:17.798Z,0.90
2023-01-27T01:40:44.851Z,0.80
2023-01-27T01:43:15.977Z,0.70
2023-01-27T01:45:44.953Z,0.80
2023-01-27T01:48:20.796Z,0.80
2023-01-27T01:50:58.818Z,0.80
2023-01-27T01:53:31.450Z,0.70
2023-01-27T01:56:00.916Z,0.80
2023-01-27T01:58:28.098Z,0.90
2023-01-27T02:00:56.020Z,0.80
2023-01-27T02:03:24.131Z,0.80
2023-01-27T02:05:54.576Z,0.80
2023-01-27T02:08:33.998Z,0.80
2023-01-27T02:11:00.575Z,0.70
2023-01-27T02:13:27.132Z,0.80
2023-01-27T02:15:54.813Z,0.70
2023-01-27T02:18:21.867Z,0.70
2023-01-27T02:20:53.742Z,0.80
2023-01-27T02:23:27.827Z,0.80
2023-01-27T02:25:57.714Z,0.80
2023-01-27T02:28:26.382Z,0.80
2023-01-27T02:30:53.063Z,0.80
2023-01-27T02:33:19.750Z,0.70
2023-01-27T02:35:52.304Z,0.70
2023-01-27T02:38:21.689Z,0.80
2023-01-27T02:40:50.523Z,0.70
2023-01-27T02:43:17.110Z,0.80
2023-01-27T02:45:46.186Z,0.80
2023-01-27T02:48:13.138Z,0.80
2023-01-27T02:50:42.055Z,0.90
2023-01-27T02:53:08.721Z,0.80
2023-01-27T02:55:35.400Z,0.70
2023-01-27T02:58:02.104Z,0.80
2023-01-27T03:00:28.741Z,0.80
2023-01-27T03:02:55.348Z,0.80
2023-01-27T03:05:21.972Z,0.80
2023-01-27T03:07:48.622Z,0.80
2023-01-27T03:10:15.235Z,0.80
2023-01-27T03:12:41.804Z,0.80
2023-01-27T03:15:27.772Z,0.80
2023-01-27T03:18:09.751Z,0.70
2023-01-27T03:20:36.523Z,0.80
2023-01-27T03:23:03.725Z,0.80
2023-01-27T03:25:30.322Z,0.80
2023-01-27T03:27:59.997Z,0.80
2023-01-27T03:30:27.721Z,0.80
2023-01-27T03:32:54.436Z,0.90
2023-01-27T03:35:23.044Z,0.80
2023-01-27T03:38:08.848Z,0.70
2023-01-27T03:40:53.772Z,0.70
2023-01-27T03:43:38.975Z,0.70
2023-01-27T03:46:18.526Z,0.80
2023-01-27T03:48:51.417Z,0.70
2023-01-27T03:51:18.726Z,0.60
2023-01-27T03:53:45.452Z,0.60
2023-01-27T03:56:12.716Z,0.60
2023-01-27T03:58:39.452Z,0.70
2023-01-27T04:01:16.825Z,0.60
2023-01-27T04:04:02.083Z,0.60
2023-01-27T04:06:48.631Z,0.70
2023-01-27T04:09:19.767Z,0.70
2023-01-27T04:11:55.229Z,0.90
2023-01-27T04:14:24.982Z,0.90
2023-01-27T04:16:53.278Z,0.70
2023-01-27T04:19:20.274Z,0.70
2023-01-27T04:21:47.298Z,0.70
2023-01-27T04:24:17.250Z,0.70
2023-01-27T04:26:45.087Z,0.80
2023-01-27T04:29:14.799Z,0.90
2023-01-27T04:31:42.592Z,0.90
2023-01-27T04:34:10.201Z,0.90
2023-01-27T04:36:36.909Z,0.80
2023-01-27T04:39:05.740Z,0.70
2023-01-27T04:41:32.315Z,0.60
2023-01-27T04:43:58.946Z,0.60
2023-01-27T04:46:25.582Z,0.70
2023-01-27T04:48:52.249Z,0.80
2023-01-27T04:51:18.969Z,0.70
2023-01-27T04:53:45.589Z,0.70
2023-01-27T04:56:17.973Z,0.70
2023-01-27T04:58:44.548Z,0.70
2023-01-27T05:01:13.515Z,0.70
2023-01-27T05:03:40.186Z,0.70
2023-01-27T05:06:09.182Z,0.70
2023-01-27T05:08:38.685Z,0.70
2023-01-27T05:11:05.423Z,0.70
2023-01-27T05:13:34.539Z,0.70
2023-01-27T05:16:09.299Z,0.90
2023-01-27T05:18:36.490Z,1.20
2023-01-27T05:21:06.713Z,1.10
2023-01-27T05:23:36.436Z,1.00
2023-01-27T05:26:13.529Z,1.00
2023-01-27T05:28:41.651Z,1.00
2023-01-27T05:31:08.353Z,1.00
2023-01-27T05:33:35.051Z,1.00
2023-01-27T05:36:02.829Z,0.90
2023-01-27T05:38:29.611Z,1.00
2023-01-27T05:41:00.765Z,1.00
2023-01-27T05:43:31.100Z,0.90
2023-01-27T05:46:07.083Z,0.90
2023-01-27T05:48:41.163Z,0.80
2023-01-27T05:51:11.257Z,0.70
2023-01-27T05:53:39.009Z,0.70
2023-01-27T05:56:06.063Z,0.70
2023-01-27T05:58:34.804Z,0.70
2023-01-27T06:01:07.745Z,0.70
2023-01-27T06:03:36.835Z,0.70
2023-01-27T06:06:04.090Z,0.70
2023-01-27T06:08:33.142Z,0.70
2023-01-27T06:10:59.888Z,0.70
2023-01-27T06:13:26.497Z,0.70
2023-01-27T06:15:54.957Z,0.80
2023-01-27T06:18:22.014Z,0.80
2023-01-27T06:20:50.796Z,0.70
2023-01-27T06:23:18.073Z,0.60
2023-01-27T06:25:48.195Z,0.60
2023-01-27T06:28:28.239Z,0.60
2023-01-27T06:31:04.360Z,0.60
2023-01-27T06:33:30.983Z,0.70
2023-01-27T06:36:01.716Z,0.70
2023-01-27T06:38:28.333Z,0.80
2023-01-27T06:40:54.900Z,0.70
2023-01-27T06:43:21.464Z,0.70
2023-01-27T06:45:51.637Z,0.70
2023-01-27T06:48:18.419Z,0.80
2023-01-27T06:50:45.306Z,0.90
2023-01-27T06:53:11.930Z,0.80
2023-01-27T06:55:41.596Z,0.70
2023-01-27T06:58:08.991Z,0.70
2023-01-27T07:00:36.662Z,0.60
2023-01-27T07:03:05.830Z,0.70
2023-01-27T07:05:33.308Z,0.70
2023-01-27T07:08:00.203Z,0.70
2023-01-27T07:10:27.063Z,0.70
2023-01-27T07:12:53.760Z,0.60
2023-01-27T07:15:20.355Z,0.70
2023-01-27T07:17:46.949Z,0.70
2023-01-27T07:20:13.894Z,0.70
2023-01-27T07:22:40.611Z,0.80
2023-01-27T07:25:07.507Z,0.90
2023-01-27T07:27:34.162Z,0.80
2023-01-27T07:30:00.797Z,0.80
2023-01-27T07:32:28.603Z,0.70
2023-01-27T07:34:55.295Z,0.80
2023-01-27T07:37:21.907Z,0.80
2023-01-27T07:39:48.794Z,0.70
2023-01-27T07:42:15.539Z,0.70
2023-01-27T07:44:42.202Z,0.70
2023-01-27T07:47:08.812Z,0.90
2023-01-27T07:49:35.453Z,0.90
2023-01-27T07:52:02.053Z,0.80
2023-01-27T07:54:28.736Z,0.80
2023-01-27T07:56:55.304Z,0.80
2023-01-27T07:59:24.378Z,0.80
2023-01-27T08:01:50.964Z,0.80
2023-01-27T08:04:19.942Z,0.80
2023-01-27T08:06:46.635Z,0.80
2023-01-27T08:09:13.324Z,0.80
2023-01-27T08:11:39.945Z,0.80
2023-01-27T08:14:06.615Z,0.80
2023-01-27T08:16:33.332Z,0.80
2023-01-27T08:19:02.273Z,0.90
2023-01-27T08:21:33.142Z,0.90
2023-01-27T08:24:00.241Z,0.90
2023-01-27T08:26:27.316Z,0.90
2023-01-27T08:28:57.647Z,0.90
2023-01-27T08:31:24.277Z,0.90
2023-01-27T08:33:52.516Z,1.00
2023-01-27T08:36:19.982Z,1.00
2023-01-27T08:38:49.643Z,1.10
2023-01-27T08:41:17.905Z,1.10
2023-01-27T08:43:44.551Z,1.20
2023-01-27T08:46:11.528Z,1.20
2023-01-27T08:48:38.810Z,1.20
2023-01-27T08:51:06.312Z,1.20
2023-01-27T08:53:33.309Z,1.30
2023-01-27T08:56:03.105Z,1.30
2023-01-27T08:58:33.326Z,1.30
2023-01-27T09:01:01.784Z,1.40
2023-01-27T09:03:29.192Z,1.40
2023-01-27T09:05:58.149Z,1.40
2023-01-27T09:08:25.338Z,1.40
2023-01-27T09:10:52.039Z,1.40
2023-01-27T09:13:24.167Z,1.40
2023-01-27T09:15:51.912Z,1.30
2023-01-27T09:18:21.087Z,1.30
2023-01-27T09:20:47.743Z,1.30
2023-01-27T09:23:14.355Z,1.20
2023-01-27T09:25:40.921Z,1.30
2023-01-27T09:28:16.747Z,1.30
2023-01-27T09:30:46.809Z,1.30
2023-01-27T09:33:17.215Z,1.40
2023-01-27T09:35:46.511Z,1.40
2023-01-27T09:38:14.928Z,1.60
2023-01-27T09:40:41.476Z,1.70
2023-01-27T09:43:22.342Z,1.70
2023-01-27T09:45:52.072Z,1.80
2023-01-27T09:48:28.182Z,1.90
2023-01-27T09:50:57.772Z,2.10
2023-01-27T09:53:26.540Z,2.20
2023-01-27T09:55:58.047Z,2.20
2023-01-27T09:58:24.970Z,2.30
2023-01-27T10:01:03.576Z,2.40
2023-01-27T10:03:39.310Z,2.50
2023-01-27T10:06:22.090Z,2.60
2023-01-27T10:09:07.448Z,2.70
2023-01-27T10:11:56.567Z,2.90
2023-01-27T10:14:42.360Z,2.90
2023-01-27T10:17:08.974Z,2.80
2023-01-27T10:19:41.850Z,2.70
2023-01-27T10:22:14.654Z,2.50
2023-01-27T10:24:47.295Z,2.50
2023-01-27T10:27:17.581Z,2.60
2023-01-27T10:29:51.144Z,2.60
2023-01-27T10:32:17.773Z,2.70
2023-01-27T10:35:02.386Z,2.80
2023-01-27T10:37:28.969Z,2.70
2023-01-27T10:40:14.414Z,2.70
2023-01-27T10:42:45.323Z,2.70
2023-01-27T10:45:11.979Z,2.70
2023-01-27T10:47:48.003Z,2.70
2023-01-27T10:50:28.575Z,2.80
2023-01-27T10:52:58.704Z,2.90
2023-01-27T10:55:30.544Z,2.70
2023-01-27T10:58:02.508Z,2.70
2023-01-27T11:03:27.262Z,2.70
2023-01-27T11:06:02.889Z,2.70
2023-01-27T11:08:31.347Z,2.80
2023-01-27T11:11:17.931Z,2.80
2023-01-27T11:13:46.843Z,2.80
2023-01-27T11:16:17.413Z,2.80
2023-01-27T11:18:46.485Z,2.80
2023-01-27T11:21:17.765Z,2.80
2023-01-27T11:23:46.847Z,2.70
2023-01-27T11:26:24.163Z,2.70
2023-01-27T11:29:06.846Z,2.70
2023-01-27T11:31:42.861Z,2.60
2023-01-27T11:34:21.429Z,2.50
2023-01-27T11:36:49.940Z,2.50
2023-01-27T11:39:18.075Z,2.50
2023-01-27T11:41:50.779Z,2.50
2023-01-27T11:44:29.303Z,2.50
2023-01-27T11:46:56.135Z,2.50
2023-01-27T11:49:27.911Z,2.60
2023-01-27T11:52:05.447Z,2.60
2023-01-27T11:54:49.213Z,2.60
2023-01-27T11:57:18.625Z,2.70
2023-01-27T11:59:45.417Z,2.70
2023-01-27T12:02:22.584Z,2.80
2023-01-27T12:05:00.880Z,2.90
2023-01-27T12:07:33.739Z,2.90
2023-01-27T12:10:00.327Z,3.00
2023-01-27T12:12:29.885Z,3.00
2023-01-27T12:15:00.375Z,3.00
2023-01-27T12:17:40.981Z,3.00
2023-01-27T12:20:27.670Z,2.90
2023-01-27T12:22:55.304Z,2.90
2023-01-27T12:25:24.830Z,2.80
2023-01-27T12:27:57.053Z,2.80
2023-01-27T12:30:24.955Z,2.80
2023-01-27T12:32:51.872Z,2.70
2023-01-27T12:35:21.538Z,2.60
2023-01-27T12:37:50.891Z,2.60
2023-01-27T12:40:21.516Z,2.70
2023-01-27T12:42:51.753Z,2.70
2023-01-27T12:45:23.508Z,2.60
2023-01-27T12:47:56.200Z,2.70
2023-01-27T12:50:25.154Z,2.80
2023-01-27T12:52:54.874Z,2.90
2023-01-27T12:55:28.967Z,2.80
2023-01-27T12:57:55.645Z,2.80
2023-01-27T13:00:22.323Z,2.90
2023-01-27T13:02:49.019Z,2.90
2023-01-27T13:05:16.421Z,2.90
2023-01-27T13:07:44.913Z,2.80
2023-01-27T13:10:21.636Z,2.80
2023-01-27T13:12:48.362Z,2.70
2023-01-27T13:15:20.133Z,2.70
2023-01-27T13:17:50.896Z,2.70
2023-01-27T13:20:17.566Z,2.70
2023-01-27T13:22:46.651Z,2.60
2023-01-27T13:25:18.766Z,2.60
2023-01-27T13:27:48.855Z,2.50
2023-01-27T13:30:28.852Z,2.40
2023-01-27T13:32:57.703Z,2.40
2023-01-27T13:35:39.918Z,2.30
2023-01-27T13:38:21.712Z,2.30
2023-01-27T13:40:48.619Z,2.30
2023-01-27T13:43:24.605Z,2.30
2023-01-27T13:45:56.504Z,2.30
2023-01-27T13:48:29.323Z,2.40
2023-01-27T13:51:01.714Z,2.40
2023-01-27T13:53:28.316Z,2.30
2023-01-27T13:55:57.803Z,2.20
2023-01-27T13:58:30.196Z,2.30
2023-01-27T14:00:56.996Z,2.20
2023-01-27T14:03:26.736Z,2.20
2023-01-27T14:06:02.690Z,2.30
2023-01-27T14:08:35.352Z,2.30
2023-01-27T14:11:02.008Z,2.30
2023-01-27T14:13:42.800Z,2.30
2023-01-27T14:16:14.835Z,2.30
2023-01-27T14:18:46.602Z,2.20
2023-01-27T14:21:16.063Z,2.30
2023-01-27T14:24:01.755Z,2.20
2023-01-27T14:26:50.872Z,2.00
2023-01-27T14:29:35.987Z,2.00
2023-01-27T14:32:11.744Z,2.00
2023-01-27T14:34:57.124Z,2.20
2023-01-27T14:37:32.041Z,2.20
2023-01-27T14:40:15.912Z,2.20
2023-01-27T14:42:42.777Z,2.10
2023-01-27T14:45:23.584Z,2.10
2023-01-27T14:47:56.368Z,2.00
2023-01-27T14:50:41.280Z,2.00
2023-01-27T14:53:20.040Z,2.00
2023-01-27T14:55:51.667Z,2.00
2023-01-27T14:58:18.327Z,2.00
2023-01-27T15:00:48.011Z,2.00
2023-01-27T15:03:29.408Z,2.00
2023-01-27T15:06:02.349Z,2.10
2023-01-27T15:08:28.901Z,2.10
2023-01-27T15:11:04.743Z,2.00
2023-01-27T15:13:31.348Z,2.00
2023-01-27T15:16:03.643Z,1.90
2023-01-27T15:18:45.568Z,1.90
2023-01-27T15:21:12.110Z,2.00
2023-01-27T15:23:41.871Z,2.00
2023-01-27T15:26:09.426Z,2.00
2023-01-27T15:28:40.641Z,2.20
2023-01-27T15:31:09.924Z,2.20
2023-01-27T15:33:45.643Z,2.10
2023-01-27T15:36:27.678Z,2.00
2023-01-27T15:39:12.227Z,2.00
2023-01-27T15:41:41.222Z,2.00
2023-01-27T15:44:10.866Z,2.00
2023-01-27T15:46:37.989Z,1.90
2023-01-27T15:49:08.662Z,1.90
2023-01-27T15:51:36.510Z,1.90
2023-01-27T15:54:03.894Z,1.90
2023-01-27T15:56:48.103Z,1.80
2023-01-27T15:59:16.339Z,1.80
2023-01-27T16:01:43.080Z,1.80
2023-01-27T16:04:14.936Z,1.80
2023-01-27T16:07:03.901Z,1.90
2023-01-27T16:09:47.284Z,1.80
2023-01-27T16:12:22.979Z,1.90
2023-01-27T16:15:01.651Z,1.90
2023-01-27T16:17:34.173Z,1.80
2023-01-27T16:20:16.090Z,1.90
2023-01-27T16:22:44.191Z,1.90
2023-01-27T16:25:13.559Z,2.00
2023-01-27T16:27:59.450Z,2.10
2023-01-27T16:30:27.669Z,2.00
2023-01-27T16:33:15.661Z,2.00
2023-01-27T16:35:58.286Z,1.90
2023-01-27T16:38:38.758Z,1.90
2023-01-27T16:41:19.822Z,1.80
2023-01-27T16:43:50.579Z,1.70
2023-01-27T16:46:48.819Z,1.70
2023-01-27T16:49:18.662Z,1.70
2023-01-27T16:51:45.846Z,1.70
2023-01-27T16:54:21.840Z,1.70
2023-01-27T16:56:49.687Z,1.80
2023-01-27T16:59:21.086Z,1.80
2023-01-27T17:01:54.080Z,1.80
2023-01-27T17:04:21.075Z,1.80
2023-01-27T17:06:52.426Z,1.80
2023-01-27T17:09:23.602Z,1.80
2023-01-27T17:11:53.722Z,1.80
2023-01-27T17:14:30.717Z,1.80
2023-01-27T17:16:59.676Z,1.90
2023-01-27T17:19:36.512Z,1.90
2023-01-27T17:22:10.156Z,1.90
2023-01-27T17:24:40.642Z,1.80
2023-01-27T17:27:22.249Z,1.80
2023-01-27T17:29:49.695Z,1.70
2023-01-27T17:32:24.841Z,1.70
2023-01-27T17:34:58.945Z,1.70
2023-01-27T17:37:26.097Z,1.70
2023-01-27T17:39:57.183Z,1.70
2023-01-27T17:42:31.671Z,1.80
2023-01-27T17:45:16.845Z,1.80
2023-01-27T17:47:44.709Z,1.70
2023-01-27T17:50:12.674Z,1.80
2023-01-27T17:52:48.005Z,1.70
2023-01-27T17:55:20.368Z,1.70
2023-01-27T17:57:51.927Z,1.70
2023-01-27T18:00:21.921Z,1.70
2023-01-27T18:02:53.947Z,1.70
2023-01-27T18:05:21.978Z,1.70
2023-01-27T18:07:48.611Z,1.70
2023-01-27T18:10:39.177Z,1.70
2023-01-27T18:13:11.996Z,1.70
2023-01-27T18:15:47.246Z,1.70
2023-01-27T18:18:19.986Z,1.70
2023-01-27T18:20:53.751Z,1.60
2023-01-27T18:23:23.960Z,1.60
2023-01-27T18:26:00.859Z,1.50
2023-01-27T18:28:28.218Z,1.50
2023-01-27T18:30:57.431Z,1.50
2023-01-27T18:33:24.113Z,1.50
2023-01-27T18:35:58.265Z,1.50
2023-01-27T18:38:26.305Z,1.70
2023-01-27T18:40:55.699Z,1.80
2023-01-27T18:43:22.363Z,1.70
2023-01-27T18:45:51.241Z,1.60
2023-01-27T18:48:20.408Z,1.60
2023-01-27T18:50:47.371Z,1.60
2023-01-27T18:53:18.384Z,1.60
2023-01-27T18:55:45.319Z,1.60
2023-01-27T18:58:12.862Z,1.70
2023-01-27T19:00:39.510Z,1.70
2023-01-27T19:03:12.248Z,1.80
2023-01-27T19:05:41.366Z,1.70
2023-01-27T19:08:15.469Z,1.80
2023-01-27T19:10:42.141Z,1.80
2023-01-27T19:13:09.198Z,1.80
2023-01-27T19:15:38.172Z,1.70
2023-01-27T19:18:12.414Z,1.70
2023-01-27T19:20:39.051Z,1.60
2023-01-27T19:23:05.738Z,1.60
2023-01-27T19:25:32.452Z,1.60
2023-01-27T19:28:02.069Z,1.50
2023-01-27T19:30:35.745Z,1.50
2023-01-27T19:33:03.003Z,1.60
2023-01-27T19:35:31.413Z,1.60
2023-01-27T19:37:59.503Z,1.50
2023-01-27T19:40:28.422Z,1.60
2023-01-27T19:42:55.176Z,1.60
2023-01-27T19:45:22.280Z,1.60
2023-01-27T19:47:49.435Z,1.60
2023-01-27T19:50:19.472Z,1.60
2023-01-27T19:52:46.289Z,1.70
2023-01-27T19:55:16.085Z,1.80
2023-01-27T19:57:43.685Z,1.80
2023-01-27T20:00:24.767Z,1.80
2023-01-27T20:02:51.471Z,1.70
2023-01-27T20:05:18.639Z,1.70
2023-01-27T20:07:45.778Z,1.70
2023-01-27T20:10:29.339Z,1.60
2023-01-27T20:12:57.763Z,1.60
2023-01-27T20:15:25.599Z,1.70
2023-01-27T20:17:54.648Z,1.60
2023-01-27T20:20:22.350Z,1.60
2023-01-27T20:22:49.151Z,1.80
2023-01-27T20:25:17.127Z,1.90
2023-01-27T20:27:44.530Z,1.80
2023-01-27T20:30:14.722Z,1.80
2023-01-27T20:32:43.730Z,1.90
2023-01-27T20:35:14.607Z,1.90
2023-01-27T20:37:44.145Z,2.00
2023-01-27T20:40:14.644Z,1.90
2023-01-27T20:42:41.405Z,1.80
2023-01-27T20:45:08.537Z,1.80
2023-01-27T20:47:35.329Z,1.80
2023-01-27T20:50:05.606Z,1.70
2023-01-27T20:52:35.898Z,1.60
2023-01-27T20:55:02.947Z,1.60
2023-01-27T20:57:31.160Z,1.60
2023-01-27T21:00:01.090Z,1.60
2023-01-27T21:02:31.944Z,1.60
2023-01-27T21:04:58.694Z,1.60
2023-01-27T21:07:25.853Z,1.70
2023-01-27T21:09:53.569Z,1.70
2023-01-27T21:12:21.107Z,1.80
2023-01-27T21:14:47.744Z,1.80
2023-01-27T21:17:17.353Z,1.80
2023-01-27T21:19:44.065Z,1.80
2023-01-27T21:22:10.644Z,1.80
2023-01-27T21:24:39.541Z,1.90
2023-01-27T21:27:06.252Z,1.90
2023-01-27T21:29:35.781Z,1.90
2023-01-27T21:32:02.565Z,1.80
2023-01-27T21:34:31.661Z,1.70
2023-01-27T21:36:58.296Z,1.70
2023-01-27T21:39:24.966Z,1.80
2023-01-27T21:41:54.067Z,1.80
2023-01-27T21:44:46.090Z,1.80
2023-01-27T21:47:14.088Z,1.80
2023-01-27T21:50:00.374Z,1.70
2023-01-27T21:52:38.924Z,1.80
2023-01-27T21:55:16.148Z,1.90
2023-01-27T21:57:45.944Z,1.80
2023-01-27T22:00:13.615Z,1.80
2023-01-27T22:02:40.817Z,1.70
2023-01-27T22:05:10.893Z,1.70
2023-01-27T22:07:44.256Z,1.70
2023-01-27T22:10:14.124Z,1.70
2023-01-27T22:12:40.826Z,1.80
2023-01-27T22:15:13.536Z,1.70
2023-01-27T22:17:40.560Z,1.70
2023-01-27T22:20:09.933Z,1.70
2023-01-27T22:22:36.638Z,1.70
2023-01-27T22:25:03.374Z,1.70
2023-01-27T22:27:32.404Z,1.70
2023-01-27T22:29:59.060Z,1.60
2023-01-27T22:32:25.694Z,1.60
2023-01-27T22:34:54.751Z,1.60
2023-01-27T22:37:21.427Z,1.50
2023-01-27T22:39:48.016Z,1.60
2023-01-27T22:42:14.608Z,1.60
2023-01-27T22:44:41.265Z,1.70
2023-01-27T22:47:10.299Z,1.60
2023-01-27T22:49:36.958Z,1.60
2023-01-27T22:52:06.240Z,1.60
2023-01-27T22:54:32.848Z,1.60
2023-01-27T22:57:01.720Z,1.60
2023-01-27T22:59:28.450Z,1.60
2023-01-27T23:01:55.114Z,1.60
2023-01-27T23:04:21.803Z,1.60
2023-01-27T23:06:48.387Z,1.60
2023-01-27T23:09:15.140Z,1.60
2023-01-27T23:11:41.831Z,1.60
2023-01-27T23:14:10.624Z,1.60
2023-01-27T23:16:39.765Z,1.60
2023-01-27T23:19:08.819Z,1.70
2023-01-27T23:21:35.473Z,1.70
2023-01-27T23:24:02.150Z,1.70
2023-01-27T23:26:31.522Z,1.70
2023-01-27T23:29:00.470Z,1.60
2023-01-27T23:31:27.173Z,1.60
2023-01-27T23:33:53.900Z,1.60
2023-01-27T23:36:20.478Z,1.70
2023-01-27T23:38:47.476Z,1.70
2023-01-27T23:41:18.223Z,1.60
2023-01-27T23:43:48.000Z,1.60
2023-01-27T23:46:17.161Z,1.70
2023-01-27T23:48:48.675Z,1.70
2023-01-27T23:51:15.286Z,1.70
2023-01-27T23:53:41.956Z,1.60
2023-01-27T23:56:10.888Z,1.70
2023-01-27T23:58:37.516Z,1.60
